createdAt,value
2024-01-01T00:01:01.733Z,3.23
2024-01-01T00:03:03.021Z,3.23
2024-01-01T00:07:06.181Z,3.22
2024-01-01T00:13:09.568Z,3.22
2024-01-01T00:19:13.790Z,3.21
2024-01-01T00:23:16.856Z,3.2
2024-01-01T00:29:24.853Z,3.2
2024-01-01T00:35:25.220Z,3.19
2024-01-01T00:39:28.732Z,3.19
2024-01-01T00:43:31.555Z,3.18
2024-01-01T00:45:36.612Z,3.18
2024-01-01T00:49:36.500Z,3.18
2024-01-01T00:53:39.282Z,3.17
2024-01-01T00:55:40.856Z,3.17
2024-01-01T00:59:43.673Z,3.16
2024-01-01T01:01:45.391Z,3.16
2024-01-01T01:03:46.668Z,3.15
2024-01-01T01:05:48.319Z,3.16
2024-01-01T01:11:52.661Z,3.14
2024-01-01T01:13:54.127Z,3.14
2024-01-01T01:17:56.796Z,3.14
2024-01-01T01:22:00.169Z,3.13
2024-01-01T01:28:05.280Z,3.12
2024-01-01T01:32:08.187Z,3.11
2024-01-01T01:34:09.493Z,3.11
2024-01-01T09:16:43.198Z,3.2
2024-01-01T09:20:45.886Z,3.24
2024-01-01T09:26:50.601Z,3.22
2024-01-01T09:30:53.533Z,3.26
2024-01-01T09:32:55.199Z,3.28
2024-01-01T09:37:03.092Z,3.28
2024-01-01T09:41:00.378Z,3.26
2024-01-01T09:43:02.060Z,3.24
2024-01-01T09:47:04.267Z,3.23
2024-01-01T09:53:08.250Z,3.22
2024-01-01T09:57:11.101Z,3.21
2024-01-01T09:59:12.319Z,3.21
2024-01-01T10:01:13.634Z,3.21
2024-01-01T10:03:15.305Z,3.21
2024-01-01T10:09:20.299Z,3.22
2024-01-01T10:15:23.967Z,3.22
2024-01-01T10:19:26.849Z,3.24
2024-01-01T10:25:30.749Z,3.27
2024-01-01T10:29:33.065Z,3.26
2024-01-01T10:31:34.416Z,3.26
2024-01-01T10:35:37.282Z,3.25
2024-01-01T10:39:40.465Z,3.23
2024-01-01T10:41:42.089Z,3.23
2024-01-01T10:43:43.953Z,3.23
2024-01-01T10:45:45.764Z,3.22
2024-01-01T10:51:49.449Z,3.23
2024-01-01T10:57:53.733Z,3.21
2024-01-01T11:01:56.569Z,3.21
2024-01-01T11:08:00.664Z,3.26
2024-01-01T11:12:03.390Z,3.31
2024-01-01T11:14:05.304Z,3.3
2024-01-01T11:18:08.368Z,3.28
2024-01-01T11:22:11.293Z,3.31
2024-01-01T11:24:19.710Z,3.34
2024-01-01T11:28:15.780Z,3.4
2024-01-01T11:34:21.872Z,3.4
2024-01-01T11:40:23.980Z,3.38
2024-01-01T11:44:27.199Z,3.37
2024-01-01T11:50:31.367Z,3.38
2024-01-01T11:54:34.752Z,3.4
2024-01-01T11:56:36.175Z,3.41
2024-01-01T12:00:38.937Z,3.44
2024-01-01T12:04:41.914Z,3.49
2024-01-01T12:06:42.836Z,3.46
2024-01-01T12:10:45.647Z,3.47
2024-01-01T12:16:50.241Z,3.44
2024-01-01T12:22:55.246Z,3.47
2024-01-01T12:26:57.965Z,3.46
2024-01-01T12:33:02.371Z,3.46
2024-01-01T12:37:05.262Z,3.47
2024-01-01T12:39:07.173Z,3.45
2024-01-01T12:43:09.663Z,3.44
2024-01-01T12:47:12.006Z,3.44
2024-01-01T12:49:13.224Z,3.44
2024-01-01T12:53:16.034Z,3.43
2024-01-01T12:57:18.657Z,3.43
2024-01-01T12:59:20.217Z,3.43
2024-01-01T13:03:22.925Z,3.43
2024-01-01T13:05:24.052Z,3.43
2024-01-01T13:07:25.896Z,3.42
2024-01-01T13:09:27.724Z,3.44
2024-01-01T13:15:32.306Z,3.42
2024-01-01T13:17:34.034Z,3.42
2024-01-01T13:21:36.526Z,3.42
2024-01-01T13:25:39.748Z,3.42
2024-01-01T13:31:44.652Z,3.42
2024-01-01T13:35:48.056Z,3.42
2024-01-01T13:37:49.122Z,3.42
2024-01-01T13:41:51.452Z,3.42
2024-01-01T13:45:53.713Z,3.42
2024-01-01T13:47:55.462Z,3.44
2024-01-01T13:51:58.172Z,3.42
2024-01-01T13:58:02.569Z,3.41
2024-01-01T14:04:11.560Z,3.41
2024-01-01T14:08:10.965Z,3.41
2024-01-01T14:14:13.250Z,3.41
2024-01-01T14:18:15.657Z,3.4
2024-01-01T14:20:16.837Z,3.41
2024-01-01T14:24:18.980Z,3.4
2024-01-01T14:28:22.046Z,3.4
2024-01-01T14:30:23.299Z,3.4
2024-01-01T14:34:25.653Z,3.4
2024-01-01T14:40:30.881Z,3.4
2024-01-01T14:44:42.528Z,3.4
2024-01-01T14:46:35.612Z,3.39
2024-01-01T14:50:37.438Z,3.39
2024-01-01T14:56:40.730Z,3.39
2024-01-01T14:58:41.810Z,3.39
2024-01-01T15:02:45.020Z,3.39
2024-01-01T15:06:47.981Z,3.38
2024-01-01T15:12:59.535Z,3.49
2024-01-01T15:16:55.630Z,3.5
2024-01-01T15:18:57.535Z,3.51
2024-01-01T15:22:59.872Z,3.52
2024-01-01T15:27:04.728Z,3.52
2024-01-01T15:29:04.327Z,3.52
2024-01-01T15:33:06.746Z,3.52
2024-01-01T15:39:11.817Z,3.53
2024-01-01T15:45:14.694Z,3.53
2024-01-01T15:49:18.481Z,3.53
2024-01-01T15:55:22.500Z,3.54
2024-01-01T15:59:34.741Z,3.54
2024-01-01T16:00:18.515Z,3.54
2024-01-01T16:04:20.882Z,3.55
2024-01-01T16:06:21.831Z,3.55
2024-01-01T16:08:23.233Z,3.55
2024-01-01T16:10:24.674Z,3.55
2024-01-01T16:16:28.385Z,3.49
2024-01-01T16:18:29.972Z,3.49
2024-01-01T16:20:39.506Z,3.49
2024-01-01T16:22:32.236Z,3.48
2024-01-01T16:26:35.796Z,3.48
2024-01-01T16:32:40.295Z,3.48
2024-01-01T16:36:45.445Z,3.48
2024-01-01T16:38:44.082Z,3.48
2024-01-01T16:42:46.980Z,3.48
2024-01-01T16:46:50.513Z,3.48
2024-01-01T16:48:52.303Z,3.47
2024-01-01T16:52:55.633Z,3.47
2024-01-01T16:59:00.405Z,3.54
2024-01-01T17:05:04.771Z,3.56
2024-01-01T17:09:07.971Z,3.56
2024-01-01T17:15:11.838Z,3.57
2024-01-01T17:19:14.205Z,3.57
2024-01-01T17:21:16.628Z,3.58
2024-01-01T17:25:17.970Z,3.58
2024-01-01T17:29:20.890Z,3.58
2024-01-01T17:31:22.161Z,3.59
2024-01-01T17:37:25.892Z,3.59
2024-01-01T17:41:28.060Z,3.6
2024-01-01T17:43:28.937Z,3.6
2024-01-01T17:47:31.489Z,3.6
2024-01-01T17:51:35.175Z,3.6
2024-01-01T17:53:37.729Z,3.6
2024-01-01T17:57:39.955Z,3.61
2024-01-01T18:03:45.206Z,3.62
2024-01-01T18:09:49.844Z,3.62
2024-01-01T18:13:53.264Z,3.63
2024-01-01T18:19:59.590Z,3.63
2024-01-01T18:23:59.812Z,3.63
2024-01-01T18:26:01.146Z,3.63
2024-01-01T18:30:05.261Z,3.64
2024-01-01T18:34:07.169Z,3.64
2024-01-01T18:36:07.911Z,3.64
2024-01-01T18:40:10.827Z,3.64
2024-01-01T18:46:15.548Z,3.64
2024-01-01T18:52:18.901Z,3.64
2024-01-01T18:56:22.035Z,3.65
2024-01-01T19:02:25.146Z,3.65
2024-01-01T19:06:27.707Z,3.65
2024-01-01T19:08:29.501Z,3.65
2024-01-01T19:12:31.825Z,3.65
2024-01-01T19:16:43.876Z,3.65
2024-01-01T19:18:37.184Z,3.65
2024-01-01T19:22:38.562Z,3.66
2024-01-01T19:26:41.786Z,3.66
2024-01-01T19:28:43.354Z,3.66
2024-01-01T19:32:46.599Z,3.66
2024-01-01T19:34:48.556Z,3.66
2024-01-01T19:36:49.079Z,3.66
2024-01-01T19:38:59.772Z,3.66
2024-01-01T19:44:55.308Z,3.66
2024-01-01T19:50:58.960Z,3.66
2024-01-01T19:55:01.022Z,3.67
2024-01-01T20:01:06.429Z,3.67
2024-01-01T20:05:09.368Z,3.67
2024-01-01T20:09:12.877Z,3.67
2024-01-01T20:11:14.136Z,3.67
2024-01-01T20:15:16.675Z,3.67
2024-01-01T20:17:18.164Z,3.67
2024-01-01T20:19:20.047Z,3.68
2024-01-01T20:21:21.232Z,3.68
2024-01-01T20:27:24.627Z,3.68
2024-01-01T20:33:29.216Z,3.68
2024-01-01T20:37:31.456Z,3.68
2024-01-01T20:43:35.282Z,3.68
2024-01-01T20:47:38.863Z,3.69
2024-01-01T20:49:40.303Z,3.69
2024-01-01T20:53:43.655Z,3.69
2024-01-01T20:57:46.242Z,3.69
2024-01-01T20:59:47.541Z,3.7
2024-01-01T21:03:49.386Z,3.69
2024-01-01T21:09:53.020Z,3.7
2024-01-01T21:15:58.643Z,3.7
2024-01-01T21:20:00.675Z,3.7
2024-01-01T21:26:04.879Z,3.71
2024-01-01T21:30:07.908Z,3.71
2024-01-01T21:32:09.248Z,3.71
2024-01-01T21:36:12.652Z,3.72
2024-01-01T21:40:15.360Z,3.72
2024-01-01T21:42:16.961Z,3.72
2024-01-01T21:46:19.820Z,3.72
2024-01-01T21:52:24.702Z,3.73
2024-01-01T21:58:28.116Z,3.73
2024-01-01T22:02:31.104Z,3.74
2024-01-01T22:08:38.202Z,3.74
2024-01-01T22:12:37.870Z,3.74
2024-01-01T22:14:39.502Z,3.75
2024-01-01T22:18:42.683Z,3.75
2024-01-01T22:22:44.978Z,3.75
2024-01-01T22:24:46.724Z,3.76
2024-01-01T22:28:49.038Z,3.76
2024-01-01T22:32:51.478Z,3.77
2024-01-01T22:34:53.348Z,3.77
2024-01-01T22:38:55.953Z,3.77
2024-01-01T22:40:57.019Z,3.78
2024-01-01T22:42:58.792Z,3.78
2024-01-01T22:45:00.336Z,3.78
2024-01-01T22:45:44.106Z,3.78
2024-01-01T22:51:47.421Z,3.79
2024-01-01T22:55:49.886Z,3.8
2024-01-01T23:01:54.092Z,3.8
2024-01-01T23:05:57.114Z,3.8
2024-01-01T23:07:58.981Z,3.8
2024-01-01T23:12:01.641Z,3.81
2024-01-01T23:16:04.107Z,3.81
2024-01-01T23:18:05.256Z,3.82
2024-01-01T23:22:08.301Z,3.82
2024-01-01T23:28:12.601Z,3.83
2024-01-01T23:34:16.294Z,3.84
2024-01-01T23:38:19.129Z,3.84
2024-01-01T23:44:22.465Z,3.85
2024-01-01T23:48:25.568Z,3.86
2024-01-01T23:50:27.045Z,3.86
2024-01-01T23:54:30.309Z,3.86
2024-01-01T23:58:33.313Z,3.86
